sensor_id;sensor_type;location;lat;lon;timestamp;P1;durP1;ratioP1;P2;durP2;ratioP2
18336;SDS011;9294;51.106;7.028;2023-03-01T00:01:35;4.07;;;3.78;;
18336;SDS011;9294;51.106;7.028;2023-03-01T00:04:03;4.18;;;3.88;;
18336;SDS011;9294;51.106;7.028;2023-03-01T00:06:30;4.03;;;3.83;;
18336;SDS011;9294;51.106;7.028;2023-03-01T00:08:56;4.10;;;3.88;;
18336;SDS011;9294;51.106;7.028;2023-03-01T00:11:24;4.20;;;3.90;;
18336;SDS011;9294;51.106;7.028;2023-03-01T00:13:53;4.20;;;3.90;;
18336;SDS011;9294;51.106;7.028;2023-03-01T00:16:22;4.35;;;4.05;;
18336;SDS011;9294;51.106;7.028;2023-03-01T00:18:50;3.60;;;3.40;;
18336;SDS011;9294;51.106;7.028;2023-03-01T00:21:18;4.03;;;3.75;;
18336;SDS011;9294;51.106;7.028;2023-03-01T00:23:46;3.78;;;3.50;;
18336;SDS011;9294;51.106;7.028;2023-03-01T00:26:13;3.75;;;3.45;;
18336;SDS011;9294;51.106;7.028;2023-03-01T00:28:41;4.72;;;4.20;;
18336;SDS011;9294;51.106;7.028;2023-03-01T00:31:09;4.50;;;4.10;;
18336;SDS011;9294;51.106;7.028;2023-03-01T00:33:38;3.95;;;3.55;;
18336;SDS011;9294;51.106;7.028;2023-03-01T00:36:05;3.97;;;3.67;;
18336;SDS011;9294;51.106;7.028;2023-03-01T00:38:35;4.25;;;3.85;;
18336;SDS011;9294;51.106;7.028;2023-03-01T00:41:03;3.90;;;3.67;;
18336;SDS011;9294;51.106;7.028;2023-03-01T00:43:30;4.32;;;3.92;;
18336;SDS011;9294;51.106;7.028;2023-03-01T00:46:01;3.92;;;3.63;;
18336;SDS011;9294;51.106;7.028;2023-03-01T00:48:28;3.60;;;3.40;;
18336;SDS011;9294;51.106;7.028;2023-03-01T00:50:55;4.70;;;3.90;;
18336;SDS011;9294;51.106;7.028;2023-03-01T00:53:21;3.60;;;3.30;;
18336;SDS011;9294;51.106;7.028;2023-03-01T00:55:49;3.60;;;3.40;;
18336;SDS011;9294;51.106;7.028;2023-03-01T00:58:16;3.80;;;3.50;;
18336;SDS011;9294;51.106;7.028;2023-03-01T01:00:42;4.03;;;3.63;;
18336;SDS011;9294;51.106;7.028;2023-03-01T01:03:09;3.88;;;3.58;;
18336;SDS011;9294;51.106;7.028;2023-03-01T01:05:36;3.83;;;3.58;;
18336;SDS011;9294;51.106;7.028;2023-03-01T01:08:02;4.05;;;3.75;;
18336;SDS011;9294;51.106;7.028;2023-03-01T01:10:29;3.97;;;3.70;;
18336;SDS011;9294;51.106;7.028;2023-03-01T01:12:57;3.83;;;3.53;;
18336;SDS011;9294;51.106;7.028;2023-03-01T01:15:24;4.03;;;3.72;;
18336;SDS011;9294;51.106;7.028;2023-03-01T01:17:51;3.97;;;3.70;;
18336;SDS011;9294;51.106;7.028;2023-03-01T01:20:17;3.67;;;3.47;;
18336;SDS011;9294;51.106;7.028;2023-03-01T01:22:44;3.20;;;3.00;;
18336;SDS011;9294;51.106;7.028;2023-03-01T01:25:11;3.53;;;3.33;;
18336;SDS011;9294;51.106;7.028;2023-03-01T01:27:37;3.42;;;3.22;;
18336;SDS011;9294;51.106;7.028;2023-03-01T01:30:06;3.30;;;3.10;;
18336;SDS011;9294;51.106;7.028;2023-03-01T01:32:34;3.38;;;3.17;;
18336;SDS011;9294;51.106;7.028;2023-03-01T01:35:00;3.40;;;3.20;;
18336;SDS011;9294;51.106;7.028;2023-03-01T01:37:27;4.00;;;3.60;;
18336;SDS011;9294;51.106;7.028;2023-03-01T01:39:56;3.38;;;3.17;;
18336;SDS011;9294;51.106;7.028;2023-03-01T01:42:23;3.10;;;2.90;;
18336;SDS011;9294;51.106;7.028;2023-03-01T01:47:51;4.15;;;3.75;;
18336;SDS011;9294;51.106;7.028;2023-03-01T01:50:20;3.33;;;3.03;;
18336;SDS011;9294;51.106;7.028;2023-03-01T01:52:47;3.22;;;3.03;;
18336;SDS011;9294;51.106;7.028;2023-03-01T01:55:15;3.03;;;2.83;;
18336;SDS011;9294;51.106;7.028;2023-03-01T01:57:47;3.03;;;2.83;;
18336;SDS011;9294;51.106;7.028;2023-03-01T02:00:17;3.05;;;2.85;;
18336;SDS011;9294;51.106;7.028;2023-03-01T02:02:46;3.40;;;3.20;;
18336;SDS011;9294;51.106;7.028;2023-03-01T02:05:20;3.08;;;2.78;;
18336;SDS011;9294;51.106;7.028;2023-03-01T02:07:50;3.42;;;3.15;;
18336;SDS011;9294;51.106;7.028;2023-03-01T02:10:18;3.28;;;3.08;;
18336;SDS011;9294;51.106;7.028;2023-03-01T02:12:46;3.35;;;3.15;;
18336;SDS011;9294;51.106;7.028;2023-03-01T02:15:13;3.28;;;3.08;;
18336;SDS011;9294;51.106;7.028;2023-03-01T02:17:39;2.90;;;2.70;;
18336;SDS011;9294;51.106;7.028;2023-03-01T02:20:09;3.30;;;3.10;;
18336;SDS011;9294;51.106;7.028;2023-03-01T02:22:44;3.00;;;2.80;;
18336;SDS011;9294;51.106;7.028;2023-03-01T02:27:51;2.78;;;2.67;;
18336;SDS011;9294;51.106;7.028;2023-03-01T02:30:25;3.03;;;2.88;;
18336;SDS011;9294;51.106;7.028;2023-03-01T02:32:53;3.17;;;2.97;;
18336;SDS011;9294;51.106;7.028;2023-03-01T02:35:27;3.05;;;2.85;;
18336;SDS011;9294;51.106;7.028;2023-03-01T02:37:55;2.83;;;2.72;;
18336;SDS011;9294;51.106;7.028;2023-03-01T02:40:25;2.80;;;2.60;;
18336;SDS011;9294;51.106;7.028;2023-03-01T02:42:56;3.13;;;2.92;;
18336;SDS011;9294;51.106;7.028;2023-03-01T02:45:25;3.50;;;3.30;;
18336;SDS011;9294;51.106;7.028;2023-03-01T02:47:53;3.35;;;3.15;;
18336;SDS011;9294;51.106;7.028;2023-03-01T02:50:23;3.25;;;3.05;;
18336;SDS011;9294;51.106;7.028;2023-03-01T02:53:08;2.85;;;2.65;;
18336;SDS011;9294;51.106;7.028;2023-03-01T02:55:39;2.50;;;2.40;;
18336;SDS011;9294;51.106;7.028;2023-03-01T02:58:06;2.83;;;2.72;;
18336;SDS011;9294;51.106;7.028;2023-03-01T03:00:36;3.25;;;3.05;;
18336;SDS011;9294;51.106;7.028;2023-03-01T03:03:10;2.80;;;2.63;;
18336;SDS011;9294;51.106;7.028;2023-03-01T03:05:39;2.80;;;2.70;;
18336;SDS011;9294;51.106;7.028;2023-03-01T03:08:05;3.15;;;2.95;;
18336;SDS011;9294;51.106;7.028;2023-03-01T03:10:33;2.60;;;2.50;;
18336;SDS011;9294;51.106;7.028;2023-03-01T03:13:03;2.83;;;2.65;;
18336;SDS011;9294;51.106;7.028;2023-03-01T03:15:32;3.05;;;2.85;;
18336;SDS011;9294;51.106;7.028;2023-03-01T03:18:03;3.20;;;3.00;;
18336;SDS011;9294;51.106;7.028;2023-03-01T03:20:32;2.88;;;2.67;;
18336;SDS011;9294;51.106;7.028;2023-03-01T03:22:59;3.30;;;3.10;;
18336;SDS011;9294;51.106;7.028;2023-03-01T03:25:27;2.83;;;2.72;;
18336;SDS011;9294;51.106;7.028;2023-03-01T03:27:54;3.00;;;2.80;;
18336;SDS011;9294;51.106;7.028;2023-03-01T03:30:24;2.85;;;2.75;;
18336;SDS011;9294;51.106;7.028;2023-03-01T03:32:51;2.88;;;2.78;;
18336;SDS011;9294;51.106;7.028;2023-03-01T03:35:20;2.67;;;2.58;;
18336;SDS011;9294;51.106;7.028;2023-03-01T03:37:49;3.47;;;3.28;;
18336;SDS011;9294;51.106;7.028;2023-03-01T03:40:29;3.00;;;2.80;;
18336;SDS011;9294;51.106;7.028;2023-03-01T03:42:58;3.10;;;2.90;;
18336;SDS011;9294;51.106;7.028;2023-03-01T03:45:25;3.22;;;2.90;;
18336;SDS011;9294;51.106;7.028;2023-03-01T03:47:52;2.75;;;2.65;;
18336;SDS011;9294;51.106;7.028;2023-03-01T03:50:20;2.80;;;2.70;;
18336;SDS011;9294;51.106;7.028;2023-03-01T03:52:47;3.00;;;2.83;;
18336;SDS011;9294;51.106;7.028;2023-03-01T03:55:13;2.95;;;2.75;;
18336;SDS011;9294;51.106;7.028;2023-03-01T03:57:44;2.65;;;2.53;;
18336;SDS011;9294;51.106;7.028;2023-03-01T04:00:17;2.72;;;2.63;;
18336;SDS011;9294;51.106;7.028;2023-03-01T04:02:45;2.80;;;2.63;;
18336;SDS011;9294;51.106;7.028;2023-03-01T04:05:13;2.95;;;2.75;;
18336;SDS011;9294;51.106;7.028;2023-03-01T04:07:43;2.90;;;2.78;;
18336;SDS011;9294;51.106;7.028;2023-03-01T04:10:11;2.22;;;2.13;;
18336;SDS011;9294;51.106;7.028;2023-03-01T04:12:39;2.35;;;2.25;;
18336;SDS011;9294;51.106;7.028;2023-03-01T04:15:08;2.30;;;2.20;;
18336;SDS011;9294;51.106;7.028;2023-03-01T04:17:38;2.83;;;2.63;;
18336;SDS011;9294;51.106;7.028;2023-03-01T04:20:06;2.80;;;2.70;;
18336;SDS011;9294;51.106;7.028;2023-03-01T04:22:36;2.97;;;2.80;;
18336;SDS011;9294;51.106;7.028;2023-03-01T04:25:06;3.28;;;3.08;;
18336;SDS011;9294;51.106;7.028;2023-03-01T04:27:34;2.90;;;2.70;;
18336;SDS011;9294;51.106;7.028;2023-03-01T04:30:02;2.75;;;2.65;;
18336;SDS011;9294;51.106;7.028;2023-03-01T04:32:30;3.00;;;2.80;;
18336;SDS011;9294;51.106;7.028;2023-03-01T04:34:56;2.88;;;2.78;;
18336;SDS011;9294;51.106;7.028;2023-03-01T04:37:24;3.17;;;3.05;;
18336;SDS011;9294;51.106;7.028;2023-03-01T04:39:50;2.75;;;2.60;;
18336;SDS011;9294;51.106;7.028;2023-03-01T04:42:18;2.63;;;2.53;;
18336;SDS011;9294;51.106;7.028;2023-03-01T04:44:45;2.55;;;2.40;;
18336;SDS011;9294;51.106;7.028;2023-03-01T04:47:12;2.63;;;2.53;;
18336;SDS011;9294;51.106;7.028;2023-03-01T04:49:39;2.97;;;2.78;;
18336;SDS011;9294;51.106;7.028;2023-03-01T04:52:06;2.58;;;2.47;;
18336;SDS011;9294;51.106;7.028;2023-03-01T04:54:33;2.45;;;2.35;;
18336;SDS011;9294;51.106;7.028;2023-03-01T04:57:01;2.95;;;2.85;;
18336;SDS011;9294;51.106;7.028;2023-03-01T04:59:29;2.85;;;2.70;;
18336;SDS011;9294;51.106;7.028;2023-03-01T05:01:56;2.97;;;2.78;;
18336;SDS011;9294;51.106;7.028;2023-03-01T05:04:25;2.58;;;2.47;;
18336;SDS011;9294;51.106;7.028;2023-03-01T05:06:52;2.67;;;2.58;;
18336;SDS011;9294;51.106;7.028;2023-03-01T05:09:19;2.70;;;2.50;;
18336;SDS011;9294;51.106;7.028;2023-03-01T05:11:46;2.80;;;2.70;;
18336;SDS011;9294;51.106;7.028;2023-03-01T05:14:13;2.58;;;2.45;;
18336;SDS011;9294;51.106;7.028;2023-03-01T05:16:41;2.15;;;2.05;;
18336;SDS011;9294;51.106;7.028;2023-03-01T05:19:07;2.30;;;2.20;;
18336;SDS011;9294;51.106;7.028;2023-03-01T05:21:40;2.65;;;2.55;;
18336;SDS011;9294;51.106;7.028;2023-03-01T05:24:21;2.58;;;2.47;;
18336;SDS011;9294;51.106;7.028;2023-03-01T05:26:48;2.67;;;2.58;;
18336;SDS011;9294;51.106;7.028;2023-03-01T05:29:16;2.40;;;2.30;;
18336;SDS011;9294;51.106;7.028;2023-03-01T05:31:45;2.60;;;2.50;;
18336;SDS011;9294;51.106;7.028;2023-03-01T05:34:12;2.72;;;2.60;;
18336;SDS011;9294;51.106;7.028;2023-03-01T05:36:38;2.35;;;2.30;;
18336;SDS011;9294;51.106;7.028;2023-03-01T05:39:05;2.50;;;2.40;;
18336;SDS011;9294;51.106;7.028;2023-03-01T05:41:32;2.83;;;2.63;;
18336;SDS011;9294;51.106;7.028;2023-03-01T05:43:58;2.47;;;2.38;;
18336;SDS011;9294;51.106;7.028;2023-03-01T05:46:25;2.97;;;2.78;;
18336;SDS011;9294;51.106;7.028;2023-03-01T05:48:53;2.88;;;2.67;;
18336;SDS011;9294;51.106;7.028;2023-03-01T05:51:20;2.90;;;2.70;;
18336;SDS011;9294;51.106;7.028;2023-03-01T05:53:47;2.70;;;2.55;;
18336;SDS011;9294;51.106;7.028;2023-03-01T05:56:13;2.80;;;2.60;;
18336;SDS011;9294;51.106;7.028;2023-03-01T05:58:40;2.53;;;2.42;;
18336;SDS011;9294;51.106;7.028;2023-03-01T06:01:10;2.55;;;2.35;;
18336;SDS011;9294;51.106;7.028;2023-03-01T06:03:37;2.85;;;2.65;;
18336;SDS011;9294;51.106;7.028;2023-03-01T06:06:06;3.08;;;2.83;;
18336;SDS011;9294;51.106;7.028;2023-03-01T06:08:32;2.47;;;2.38;;
18336;SDS011;9294;51.106;7.028;2023-03-01T06:10:59;2.55;;;2.45;;
18336;SDS011;9294;51.106;7.028;2023-03-01T06:13:26;2.65;;;2.55;;
18336;SDS011;9294;51.106;7.028;2023-03-01T06:15:52;2.50;;;2.40;;
18336;SDS011;9294;51.106;7.028;2023-03-01T06:18:19;2.60;;;2.50;;
18336;SDS011;9294;51.106;7.028;2023-03-01T06:20:51;2.67;;;2.58;;
18336;SDS011;9294;51.106;7.028;2023-03-01T06:23:20;2.53;;;2.42;;
18336;SDS011;9294;51.106;7.028;2023-03-01T06:25:47;2.47;;;2.38;;
18336;SDS011;9294;51.106;7.028;2023-03-01T06:28:14;2.50;;;2.40;;
18336;SDS011;9294;51.106;7.028;2023-03-01T06:30:41;2.40;;;2.30;;
18336;SDS011;9294;51.106;7.028;2023-03-01T06:33:07;2.97;;;2.78;;
18336;SDS011;9294;51.106;7.028;2023-03-01T06:35:34;2.60;;;2.40;;
18336;SDS011;9294;51.106;7.028;2023-03-01T06:38:01;3.45;;;2.50;;
18336;SDS011;9294;51.106;7.028;2023-03-01T06:40:30;2.70;;;2.60;;
18336;SDS011;9294;51.106;7.028;2023-03-01T06:43:00;2.67;;;2.58;;
18336;SDS011;9294;51.106;7.028;2023-03-01T06:45:27;2.30;;;2.15;;
18336;SDS011;9294;51.106;7.028;2023-03-01T06:48:00;2.90;;;2.80;;
18336;SDS011;9294;51.106;7.028;2023-03-01T06:50:28;2.75;;;2.55;;
18336;SDS011;9294;51.106;7.028;2023-03-01T06:52:55;2.85;;;2.60;;
18336;SDS011;9294;51.106;7.028;2023-03-01T06:55:22;3.35;;;2.67;;
18336;SDS011;9294;51.106;7.028;2023-03-01T06:57:54;2.80;;;2.60;;
18336;SDS011;9294;51.106;7.028;2023-03-01T07:00:22;2.88;;;2.70;;
18336;SDS011;9294;51.106;7.028;2023-03-01T07:02:50;2.42;;;2.22;;
18336;SDS011;9294;51.106;7.028;2023-03-01T07:05:16;2.75;;;2.50;;
18336;SDS011;9294;51.106;7.028;2023-03-01T07:07:43;2.80;;;2.65;;
18336;SDS011;9294;51.106;7.028;2023-03-01T07:10:10;2.90;;;2.70;;
18336;SDS011;9294;51.106;7.028;2023-03-01T07:12:38;3.15;;;2.85;;
18336;SDS011;9294;51.106;7.028;2023-03-01T07:15:08;3.22;;;3.03;;
18336;SDS011;9294;51.106;7.028;2023-03-01T07:17:35;3.30;;;2.83;;
18336;SDS011;9294;51.106;7.028;2023-03-01T07:20:02;3.28;;;3.08;;
18336;SDS011;9294;51.106;7.028;2023-03-01T07:22:29;3.15;;;2.95;;
18336;SDS011;9294;51.106;7.028;2023-03-01T07:24:56;4.07;;;2.50;;
18336;SDS011;9294;51.106;7.028;2023-03-01T07:27:23;3.00;;;2.80;;
18336;SDS011;9294;51.106;7.028;2023-03-01T07:29:50;3.63;;;3.30;;
18336;SDS011;9294;51.106;7.028;2023-03-01T07:32:18;2.95;;;2.72;;
18336;SDS011;9294;51.106;7.028;2023-03-01T07:34:44;2.80;;;2.60;;
18336;SDS011;9294;51.106;7.028;2023-03-01T07:37:11;3.38;;;2.95;;
18336;SDS011;9294;51.106;7.028;2023-03-01T07:39:38;3.00;;;2.80;;
18336;SDS011;9294;51.106;7.028;2023-03-01T07:42:04;3.13;;;2.90;;
18336;SDS011;9294;51.106;7.028;2023-03-01T07:44:31;3.00;;;2.80;;
18336;SDS011;9294;51.106;7.028;2023-03-01T07:46:58;4.50;;;3.00;;
18336;SDS011;9294;51.106;7.028;2023-03-01T07:49:26;3.47;;;2.80;;
18336;SDS011;9294;51.106;7.028;2023-03-01T07:51:53;3.00;;;2.80;;
18336;SDS011;9294;51.106;7.028;2023-03-01T07:54:19;3.47;;;3.17;;
18336;SDS011;9294;51.106;7.028;2023-03-01T07:56:46;4.30;;;3.17;;
18336;SDS011;9294;51.106;7.028;2023-03-01T07:59:13;3.92;;;3.63;;
18336;SDS011;9294;51.106;7.028;2023-03-01T08:01:40;6.78;;;3.90;;
18336;SDS011;9294;51.106;7.028;2023-03-01T08:04:07;4.38;;;4.07;;
18336;SDS011;9294;51.106;7.028;2023-03-01T08:06:35;6.70;;;4.03;;
18336;SDS011;9294;51.106;7.028;2023-03-01T08:09:02;4.82;;;3.83;;
18336;SDS011;9294;51.106;7.028;2023-03-01T08:11:29;10.90;;;4.07;;
18336;SDS011;9294;51.106;7.028;2023-03-01T08:13:55;4.00;;;3.58;;
18336;SDS011;9294;51.106;7.028;2023-03-01T08:16:22;3.38;;;3.08;;
18336;SDS011;9294;51.106;7.028;2023-03-01T08:18:49;6.65;;;3.60;;
18336;SDS011;9294;51.106;7.028;2023-03-01T08:21:17;3.53;;;3.20;;
18336;SDS011;9294;51.106;7.028;2023-03-01T08:23:46;5.13;;;3.40;;
18336;SDS011;9294;51.106;7.028;2023-03-01T08:26:13;5.60;;;3.33;;
18336;SDS011;9294;51.106;7.028;2023-03-01T08:28:41;3.63;;;3.35;;
18336;SDS011;9294;51.106;7.028;2023-03-01T08:31:15;7.15;;;4.35;;
18336;SDS011;9294;51.106;7.028;2023-03-01T08:33:43;4.00;;;3.60;;
18336;SDS011;9294;51.106;7.028;2023-03-01T08:36:15;4.03;;;3.53;;
18336;SDS011;9294;51.106;7.028;2023-03-01T08:38:42;3.33;;;3.22;;
18336;SDS011;9294;51.106;7.028;2023-03-01T08:41:10;4.38;;;3.97;;
18336;SDS011;9294;51.106;7.028;2023-03-01T08:43:37;4.95;;;4.03;;
18336;SDS011;9294;51.106;7.028;2023-03-01T08:46:04;3.78;;;3.40;;
18336;SDS011;9294;51.106;7.028;2023-03-01T08:48:30;3.40;;;3.17;;
18336;SDS011;9294;51.106;7.028;2023-03-01T08:50:59;4.13;;;3.83;;
18336;SDS011;9294;51.106;7.028;2023-03-01T08:53:33;4.00;;;3.65;;
18336;SDS011;9294;51.106;7.028;2023-03-01T08:56:00;12.35;;;4.28;;
18336;SDS011;9294;51.106;7.028;2023-03-01T08:58:28;4.63;;;3.30;;
18336;SDS011;9294;51.106;7.028;2023-03-01T09:00:55;5.30;;;4.10;;
18336;SDS011;9294;51.106;7.028;2023-03-01T09:03:22;8.35;;;4.88;;
18336;SDS011;9294;51.106;7.028;2023-03-01T09:05:49;4.47;;;4.07;;
18336;SDS011;9294;51.106;7.028;2023-03-01T09:08:16;5.25;;;4.45;;
18336;SDS011;9294;51.106;7.028;2023-03-01T09:10:43;5.10;;;4.22;;
18336;SDS011;9294;51.106;7.028;2023-03-01T09:13:09;4.30;;;3.90;;
18336;SDS011;9294;51.106;7.028;2023-03-01T09:15:37;6.97;;;3.85;;
18336;SDS011;9294;51.106;7.028;2023-03-01T09:18:04;4.05;;;3.63;;
18336;SDS011;9294;51.106;7.028;2023-03-01T09:20:31;5.78;;;4.13;;
18336;SDS011;9294;51.106;7.028;2023-03-01T09:22:58;4.22;;;3.58;;
18336;SDS011;9294;51.106;7.028;2023-03-01T09:25:25;4.30;;;3.90;;
18336;SDS011;9294;51.106;7.028;2023-03-01T09:27:52;5.00;;;4.03;;
18336;SDS011;9294;51.106;7.028;2023-03-01T09:30:19;5.68;;;4.20;;
18336;SDS011;9294;51.106;7.028;2023-03-01T09:32:47;4.28;;;3.88;;
18336;SDS011;9294;51.106;7.028;2023-03-01T09:35:14;4.65;;;4.25;;
18336;SDS011;9294;51.106;7.028;2023-03-01T09:37:41;3.92;;;3.63;;
18336;SDS011;9294;51.106;7.028;2023-03-01T09:40:12;5.18;;;4.05;;
18336;SDS011;9294;51.106;7.028;2023-03-01T09:42:49;5.63;;;4.07;;
18336;SDS011;9294;51.106;7.028;2023-03-01T09:45:23;5.25;;;4.15;;
18336;SDS011;9294;51.106;7.028;2023-03-01T09:47:55;7.10;;;4.18;;
18336;SDS011;9294;51.106;7.028;2023-03-01T09:50:22;6.68;;;3.78;;
18336;SDS011;9294;51.106;7.028;2023-03-01T09:52:54;3.65;;;3.35;;
18336;SDS011;9294;51.106;7.028;2023-03-01T09:55:29;7.20;;;3.78;;
18336;SDS011;9294;51.106;7.028;2023-03-01T09:58:00;3.80;;;3.50;;
18336;SDS011;9294;51.106;7.028;2023-03-01T10:00:34;5.45;;;4.10;;
18336;SDS011;9294;51.106;7.028;2023-03-01T10:03:09;4.93;;;4.43;;
18336;SDS011;9294;51.106;7.028;2023-03-01T10:05:41;3.80;;;3.58;;
18336;SDS011;9294;51.106;7.028;2023-03-01T10:11:16;4.18;;;3.72;;
18336;SDS011;9294;51.106;7.028;2023-03-01T10:13:46;4.95;;;3.90;;
18336;SDS011;9294;51.106;7.028;2023-03-01T10:16:20;6.95;;;4.15;;
18336;SDS011;9294;51.106;7.028;2023-03-01T10:18:53;7.38;;;4.30;;
18336;SDS011;9294;51.106;7.028;2023-03-01T10:21:25;4.13;;;3.72;;
18336;SDS011;9294;51.106;7.028;2023-03-01T10:23:53;5.22;;;3.38;;
18336;SDS011;9294;51.106;7.028;2023-03-01T10:26:28;5.28;;;3.92;;
18336;SDS011;9294;51.106;7.028;2023-03-01T10:29:07;5.35;;;3.85;;
18336;SDS011;9294;51.106;7.028;2023-03-01T10:31:39;4.55;;;3.85;;
18336;SDS011;9294;51.106;7.028;2023-03-01T10:34:14;4.07;;;3.65;;
18336;SDS011;9294;51.106;7.028;2023-03-01T10:36:42;6.35;;;4.47;;
18336;SDS011;9294;51.106;7.028;2023-03-01T10:39:14;3.78;;;3.47;;
18336;SDS011;9294;51.106;7.028;2023-03-01T10:41:52;4.00;;;3.70;;
18336;SDS011;9294;51.106;7.028;2023-03-01T10:44:40;4.10;;;3.70;;
18336;SDS011;9294;51.106;7.028;2023-03-01T10:47:13;4.90;;;3.55;;
18336;SDS011;9294;51.106;7.028;2023-03-01T10:49:52;4.00;;;3.63;;
18336;SDS011;9294;51.106;7.028;2023-03-01T10:52:25;3.95;;;3.38;;
18336;SDS011;9294;51.106;7.028;2023-03-01T10:55:03;4.13;;;3.65;;
18336;SDS011;9294;51.106;7.028;2023-03-01T10:57:49;4.53;;;3.35;;
18336;SDS011;9294;51.106;7.028;2023-03-01T11:00:32;4.07;;;3.53;;
18336;SDS011;9294;51.106;7.028;2023-03-01T11:03:03;4.35;;;3.78;;
18336;SDS011;9294;51.106;7.028;2023-03-01T11:05:39;5.10;;;3.60;;
18336;SDS011;9294;51.106;7.028;2023-03-01T11:08:28;5.10;;;3.70;;
18336;SDS011;9294;51.106;7.028;2023-03-01T11:11:03;6.35;;;4.57;;
18336;SDS011;9294;51.106;7.028;2023-03-01T11:13:32;5.60;;;3.90;;
18336;SDS011;9294;51.106;7.028;2023-03-01T11:15:59;5.63;;;4.22;;
18336;SDS011;9294;51.106;7.028;2023-03-01T11:18:27;4.35;;;3.95;;
18336;SDS011;9294;51.106;7.028;2023-03-01T11:20:58;4.88;;;4.10;;
18336;SDS011;9294;51.106;7.028;2023-03-01T11:23:27;4.85;;;3.88;;
18336;SDS011;9294;51.106;7.028;2023-03-01T11:25:55;5.18;;;4.30;;
18336;SDS011;9294;51.106;7.028;2023-03-01T11:28:22;7.28;;;4.30;;
18336;SDS011;9294;51.106;7.028;2023-03-01T11:30:53;5.45;;;4.00;;
18336;SDS011;9294;51.106;7.028;2023-03-01T11:33:24;4.43;;;3.97;;
18336;SDS011;9294;51.106;7.028;2023-03-01T11:36:02;5.35;;;3.60;;
18336;SDS011;9294;51.106;7.028;2023-03-01T11:38:34;4.00;;;3.47;;
18336;SDS011;9294;51.106;7.028;2023-03-01T11:41:05;3.90;;;3.60;;
18336;SDS011;9294;51.106;7.028;2023-03-01T11:43:35;5.40;;;3.88;;
18336;SDS011;9294;51.106;7.028;2023-03-01T11:46:25;3.60;;;3.30;;
18336;SDS011;9294;51.106;7.028;2023-03-01T11:49:14;6.10;;;3.85;;
18336;SDS011;9294;51.106;7.028;2023-03-01T11:52:02;3.80;;;3.53;;
18336;SDS011;9294;51.106;7.028;2023-03-01T11:54:41;3.88;;;3.30;;
18336;SDS011;9294;51.106;7.028;2023-03-01T11:57:17;4.60;;;3.67;;
18336;SDS011;9294;51.106;7.028;2023-03-01T12:00:11;6.32;;;3.58;;
18336;SDS011;9294;51.106;7.028;2023-03-01T12:05:55;5.47;;;3.47;;
18336;SDS011;9294;51.106;7.028;2023-03-01T12:08:40;6.63;;;3.53;;
18336;SDS011;9294;51.106;7.028;2023-03-01T12:11:12;3.90;;;3.55;;
18336;SDS011;9294;51.106;7.028;2023-03-01T12:13:52;5.70;;;3.78;;
18336;SDS011;9294;51.106;7.028;2023-03-01T12:16:50;5.10;;;3.70;;
18336;SDS011;9294;51.106;7.028;2023-03-01T12:19:36;6.05;;;3.38;;
18336;SDS011;9294;51.106;7.028;2023-03-01T12:22:16;7.97;;;3.25;;
18336;SDS011;9294;51.106;7.028;2023-03-01T12:25:08;4.18;;;3.78;;
18336;SDS011;9294;51.106;7.028;2023-03-01T12:30:50;4.82;;;3.58;;
18336;SDS011;9294;51.106;7.028;2023-03-01T12:33:36;3.33;;;3.03;;
18336;SDS011;9294;51.106;7.028;2023-03-01T12:36:13;3.63;;;2.85;;
18336;SDS011;9294;51.106;7.028;2023-03-01T12:38:56;5.35;;;2.97;;
18336;SDS011;9294;51.106;7.028;2023-03-01T12:41:43;4.07;;;3.78;;
18336;SDS011;9294;51.106;7.028;2023-03-01T12:44:29;3.60;;;3.30;;
18336;SDS011;9294;51.106;7.028;2023-03-01T12:47:09;3.30;;;3.00;;
18336;SDS011;9294;51.106;7.028;2023-03-01T12:49:49;3.30;;;3.10;;
18336;SDS011;9294;51.106;7.028;2023-03-01T12:52:22;3.70;;;3.30;;
18336;SDS011;9294;51.106;7.028;2023-03-01T12:54:54;7.32;;;3.75;;
18336;SDS011;9294;51.106;7.028;2023-03-01T12:57:29;3.75;;;3.25;;
18336;SDS011;9294;51.106;7.028;2023-03-01T13:00:06;3.63;;;3.33;;
18336;SDS011;9294;51.106;7.028;2023-03-01T13:02:45;3.95;;;3.28;;
18336;SDS011;9294;51.106;7.028;2023-03-01T13:05:20;3.20;;;2.90;;
18336;SDS011;9294;51.106;7.028;2023-03-01T13:07:53;4.05;;;3.08;;
18336;SDS011;9294;51.106;7.028;2023-03-01T13:10:26;3.95;;;3.15;;
18336;SDS011;9294;51.106;7.028;2023-03-01T13:13:02;3.47;;;3.20;;
18336;SDS011;9294;51.106;7.028;2023-03-01T13:15:39;2.92;;;2.63;;
18336;SDS011;9294;51.106;7.028;2023-03-01T13:20:56;3.40;;;3.20;;
18336;SDS011;9294;51.106;7.028;2023-03-01T13:23:25;4.63;;;3.40;;
18336;SDS011;9294;51.106;7.028;2023-03-01T13:26:00;6.20;;;3.17;;
18336;SDS011;9294;51.106;7.028;2023-03-01T13:28:38;3.05;;;2.78;;
18336;SDS011;9294;51.106;7.028;2023-03-01T13:37:23;3.30;;;3.00;;
18336;SDS011;9294;51.106;7.028;2023-03-01T13:39:56;3.67;;;3.38;;
18336;SDS011;9294;51.106;7.028;2023-03-01T13:42:31;3.47;;;3.17;;
18336;SDS011;9294;51.106;7.028;2023-03-01T13:45:05;5.47;;;3.35;;
18336;SDS011;9294;51.106;7.028;2023-03-01T13:47:45;6.88;;;3.35;;
18336;SDS011;9294;51.106;7.028;2023-03-01T13:50:18;5.88;;;3.20;;
18336;SDS011;9294;51.106;7.028;2023-03-01T13:52:48;6.78;;;3.05;;
18336;SDS011;9294;51.106;7.028;2023-03-01T13:55:19;7.38;;;3.70;;
18336;SDS011;9294;51.106;7.028;2023-03-01T13:57:50;5.28;;;2.70;;
18336;SDS011;9294;51.106;7.028;2023-03-01T14:00:32;6.10;;;3.33;;
18336;SDS011;9294;51.106;7.028;2023-03-01T14:03:02;3.92;;;3.25;;
18336;SDS011;9294;51.106;7.028;2023-03-01T14:05:37;6.57;;;3.47;;
18336;SDS011;9294;51.106;7.028;2023-03-01T14:08:04;3.35;;;2.75;;
18336;SDS011;9294;51.106;7.028;2023-03-01T14:10:46;3.38;;;2.88;;
18336;SDS011;9294;51.106;7.028;2023-03-01T14:13:24;3.30;;;3.00;;
18336;SDS011;9294;51.106;7.028;2023-03-01T14:16:08;6.10;;;2.90;;
18336;SDS011;9294;51.106;7.028;2023-03-01T14:18:44;4.05;;;2.70;;
18336;SDS011;9294;51.106;7.028;2023-03-01T14:21:19;3.45;;;2.90;;
18336;SDS011;9294;51.106;7.028;2023-03-01T14:23:47;3.83;;;2.72;;
18336;SDS011;9294;51.106;7.028;2023-03-01T14:26:14;4.90;;;2.83;;
18336;SDS011;9294;51.106;7.028;2023-03-01T14:28:47;3.95;;;2.90;;
18336;SDS011;9294;51.106;7.028;2023-03-01T14:31:34;5.07;;;2.78;;
18336;SDS011;9294;51.106;7.028;2023-03-01T14:34:02;3.63;;;3.20;;
18336;SDS011;9294;51.106;7.028;2023-03-01T14:36:31;2.75;;;2.58;;
18336;SDS011;9294;51.106;7.028;2023-03-01T14:38:59;4.47;;;3.20;;
18336;SDS011;9294;51.106;7.028;2023-03-01T14:41:30;6.40;;;2.85;;
18336;SDS011;9294;51.106;7.028;2023-03-01T14:44:01;3.60;;;3.00;;
18336;SDS011;9294;51.106;7.028;2023-03-01T14:46:33;3.08;;;2.70;;
18336;SDS011;9294;51.106;7.028;2023-03-01T14:49:03;2.80;;;2.60;;
18336;SDS011;9294;51.106;7.028;2023-03-01T14:51:35;2.97;;;2.78;;
18336;SDS011;9294;51.106;7.028;2023-03-01T14:54:03;3.92;;;2.95;;
18336;SDS011;9294;51.106;7.028;2023-03-01T14:56:42;3.38;;;2.85;;
18336;SDS011;9294;51.106;7.028;2023-03-01T14:59:10;2.72;;;2.53;;
18336;SDS011;9294;51.106;7.028;2023-03-01T15:01:38;3.50;;;3.30;;
18336;SDS011;9294;51.106;7.028;2023-03-01T15:04:06;3.80;;;3.50;;
18336;SDS011;9294;51.106;7.028;2023-03-01T15:06:36;3.55;;;2.85;;
18336;SDS011;9294;51.106;7.028;2023-03-01T15:09:04;2.83;;;2.63;;
18336;SDS011;9294;51.106;7.028;2023-03-01T15:11:31;3.60;;;3.08;;
18336;SDS011;9294;51.106;7.028;2023-03-01T15:14:00;3.40;;;3.05;;
18336;SDS011;9294;51.106;7.028;2023-03-01T15:16:27;3.88;;;3.10;;
18336;SDS011;9294;51.106;7.028;2023-03-01T15:18:58;2.85;;;2.65;;
18336;SDS011;9294;51.106;7.028;2023-03-01T15:21:27;3.47;;;3.17;;
18336;SDS011;9294;51.106;7.028;2023-03-01T15:24:05;3.58;;;3.28;;
18336;SDS011;9294;51.106;7.028;2023-03-01T15:26:43;3.30;;;3.00;;
18336;SDS011;9294;51.106;7.028;2023-03-01T15:29:14;3.75;;;2.85;;
18336;SDS011;9294;51.106;7.028;2023-03-01T15:31:43;3.67;;;3.28;;
18336;SDS011;9294;51.106;7.028;2023-03-01T15:34:22;4.00;;;3.03;;
18336;SDS011;9294;51.106;7.028;2023-03-01T15:36:51;2.90;;;2.70;;
18336;SDS011;9294;51.106;7.028;2023-03-01T15:39:35;3.30;;;3.10;;
18336;SDS011;9294;51.106;7.028;2023-03-01T15:42:05;3.45;;;3.08;;
18336;SDS011;9294;51.106;7.028;2023-03-01T15:44:34;4.47;;;3.17;;